sensor_id;sensor_type;location;lat;lon;timestamp;temperature;humidity
9118;DHT22;4594;50.994;7.126;2022-09-03T00:02:40;20.10;27.00
9118;DHT22;4594;50.994;7.126;2022-09-03T00:05:21;20.10;27.10
9118;DHT22;4594;50.994;7.126;2022-09-03T00:13:56;20.00;27.00
9118;DHT22;4594;50.994;7.126;2022-09-03T00:16:33;20.10;27.20
9118;DHT22;4594;50.994;7.126;2022-09-03T00:19:10;20.00;27.10
9118;DHT22;4594;50.994;7.126;2022-09-03T00:21:46;20.00;27.10
9118;DHT22;4594;50.994;7.126;2022-09-03T00:24:17;20.00;27.20
9118;DHT22;4594;50.994;7.126;2022-09-03T00:26:51;19.90;27.10
9118;DHT22;4594;50.994;7.126;2022-09-03T00:29:48;20.00;27.20
9118;DHT22;4594;50.994;7.126;2022-09-03T00:32:33;19.90;27.20
9118;DHT22;4594;50.994;7.126;2022-09-03T00:35:10;19.90;27.20
9118;DHT22;4594;50.994;7.126;2022-09-03T00:37:41;19.90;27.20
9118;DHT22;4594;50.994;7.126;2022-09-03T00:40:21;19.90;27.20
9118;DHT22;4594;50.994;7.126;2022-09-03T00:51:59;19.80;27.60
9118;DHT22;4594;50.994;7.126;2022-09-03T00:57:33;19.80;27.30
9118;DHT22;4594;50.994;7.126;2022-09-03T01:00:15;19.70;27.40
9118;DHT22;4594;50.994;7.126;2022-09-03T01:08:19;19.70;27.30
9118;DHT22;4594;50.994;7.126;2022-09-03T01:11:05;19.70;27.40
9118;DHT22;4594;50.994;7.126;2022-09-03T01:14:02;19.70;27.40
9118;DHT22;4594;50.994;7.126;2022-09-03T01:17:28;19.60;27.40
9118;DHT22;4594;50.994;7.126;2022-09-03T01:20:28;19.60;27.40
9118;DHT22;4594;50.994;7.126;2022-09-03T01:23:25;19.60;27.30
9118;DHT22;4594;50.994;7.126;2022-09-03T01:29:21;19.60;27.40
9118;DHT22;4594;50.994;7.126;2022-09-03T01:32:20;19.60;27.50
9118;DHT22;4594;50.994;7.126;2022-09-03T01:35:33;19.60;27.50
9118;DHT22;4594;50.994;7.126;2022-09-03T01:41:07;19.50;27.40
9118;DHT22;4594;50.994;7.126;2022-09-03T01:44:00;19.50;27.50
9118;DHT22;4594;50.994;7.126;2022-09-03T01:46:39;19.50;27.40
9118;DHT22;4594;50.994;7.126;2022-09-03T01:49:30;19.50;27.50
9118;DHT22;4594;50.994;7.126;2022-09-03T01:52:11;19.50;27.60
9118;DHT22;4594;50.994;7.126;2022-09-03T02:00:42;19.50;27.60
9118;DHT22;4594;50.994;7.126;2022-09-03T02:03:14;19.50;27.50
9118;DHT22;4594;50.994;7.126;2022-09-03T02:05:41;19.50;27.50
9118;DHT22;4594;50.994;7.126;2022-09-03T02:08:09;19.40;27.50
9118;DHT22;4594;50.994;7.126;2022-09-03T02:10:51;19.40;27.50
9118;DHT22;4594;50.994;7.126;2022-09-03T02:13:31;19.40;27.60
9118;DHT22;4594;50.994;7.126;2022-09-03T02:16:14;19.40;27.60
9118;DHT22;4594;50.994;7.126;2022-09-03T02:18:54;19.40;27.60
9118;DHT22;4594;50.994;7.126;2022-09-03T02:21:24;19.40;27.70
9118;DHT22;4594;50.994;7.126;2022-09-03T02:23:52;19.40;27.60
9118;DHT22;4594;50.994;7.126;2022-09-03T02:26:22;19.40;27.60
9118;DHT22;4594;50.994;7.126;2022-09-03T02:28:50;19.30;27.60
9118;DHT22;4594;50.994;7.126;2022-09-03T02:31:17;19.40;27.70
9118;DHT22;4594;50.994;7.126;2022-09-03T02:33:45;19.30;27.70
9118;DHT22;4594;50.994;7.126;2022-09-03T02:36:15;19.30;27.70
9118;DHT22;4594;50.994;7.126;2022-09-03T02:38:45;19.40;27.80
9118;DHT22;4594;50.994;7.126;2022-09-03T02:41:12;19.40;27.80
9118;DHT22;4594;50.994;7.126;2022-09-03T02:43:49;19.30;27.70
9118;DHT22;4594;50.994;7.126;2022-09-03T02:46:30;19.40;27.90
9118;DHT22;4594;50.994;7.126;2022-09-03T02:48:58;19.40;27.80
9118;DHT22;4594;50.994;7.126;2022-09-03T02:51:24;19.40;27.80
9118;DHT22;4594;50.994;7.126;2022-09-03T02:53:50;19.40;27.80
9118;DHT22;4594;50.994;7.126;2022-09-03T02:56:15;19.40;27.80
9118;DHT22;4594;50.994;7.126;2022-09-03T02:58:41;19.40;27.90
9118;DHT22;4594;50.994;7.126;2022-09-03T03:01:07;19.30;27.80
9118;DHT22;4594;50.994;7.126;2022-09-03T03:03:32;19.40;27.90
9118;DHT22;4594;50.994;7.126;2022-09-03T03:06:01;19.30;27.80
9118;DHT22;4594;50.994;7.126;2022-09-03T03:08:29;19.30;27.80
9118;DHT22;4594;50.994;7.126;2022-09-03T03:10:57;19.30;27.80
9118;DHT22;4594;50.994;7.126;2022-09-03T03:13:28;19.30;27.90
9118;DHT22;4594;50.994;7.126;2022-09-03T03:15:59;19.30;28.20
9118;DHT22;4594;50.994;7.126;2022-09-03T03:18:27;19.30;27.90
9118;DHT22;4594;50.994;7.126;2022-09-03T03:20:53;19.30;27.90
9118;DHT22;4594;50.994;7.126;2022-09-03T03:23:20;19.30;27.90
9118;DHT22;4594;50.994;7.126;2022-09-03T03:25:46;19.30;27.90
9118;DHT22;4594;50.994;7.126;2022-09-03T03:28:12;19.30;27.90
9118;DHT22;4594;50.994;7.126;2022-09-03T03:30:38;19.20;27.90
9118;DHT22;4594;50.994;7.126;2022-09-03T03:33:07;19.20;27.90
9118;DHT22;4594;50.994;7.126;2022-09-03T03:35:34;19.20;27.90
9118;DHT22;4594;50.994;7.126;2022-09-03T03:38:01;19.20;27.90
9118;DHT22;4594;50.994;7.126;2022-09-03T03:40:27;19.20;27.90
9118;DHT22;4594;50.994;7.126;2022-09-03T03:42:53;19.20;28.00
9118;DHT22;4594;50.994;7.126;2022-09-03T03:45:19;19.20;28.00
9118;DHT22;4594;50.994;7.126;2022-09-03T03:47:45;19.10;27.90
9118;DHT22;4594;50.994;7.126;2022-09-03T03:50:10;19.10;28.00
9118;DHT22;4594;50.994;7.126;2022-09-03T03:52:36;19.10;28.00
9118;DHT22;4594;50.994;7.126;2022-09-03T03:55:02;19.10;28.00
9118;DHT22;4594;50.994;7.126;2022-09-03T03:57:29;19.10;28.00
9118;DHT22;4594;50.994;7.126;2022-09-03T03:59:56;19.10;28.10
9118;DHT22;4594;50.994;7.126;2022-09-03T04:02:22;19.10;28.00
9118;DHT22;4594;50.994;7.126;2022-09-03T04:04:47;19.10;28.10
9118;DHT22;4594;50.994;7.126;2022-09-03T04:07:13;19.00;28.10
9118;DHT22;4594;50.994;7.126;2022-09-03T04:09:39;19.00;28.00
9118;DHT22;4594;50.994;7.126;2022-09-03T04:12:04;19.10;28.10
9118;DHT22;4594;50.994;7.126;2022-09-03T04:14:33;19.00;28.10
9118;DHT22;4594;50.994;7.126;2022-09-03T04:17:00;19.00;28.10
9118;DHT22;4594;50.994;7.126;2022-09-03T04:19:27;19.00;28.10
9118;DHT22;4594;50.994;7.126;2022-09-03T04:21:54;19.00;28.10
9118;DHT22;4594;50.994;7.126;2022-09-03T04:24:20;19.00;28.20
9118;DHT22;4594;50.994;7.126;2022-09-03T04:26:46;19.00;28.20
9118;DHT22;4594;50.994;7.126;2022-09-03T04:29:14;19.00;28.20
9118;DHT22;4594;50.994;7.126;2022-09-03T04:31:40;19.00;28.20
9118;DHT22;4594;50.994;7.126;2022-09-03T04:34:26;19.00;28.20
9118;DHT22;4594;50.994;7.126;2022-09-03T04:36:52;18.90;28.20
9118;DHT22;4594;50.994;7.126;2022-09-03T04:39:18;18.90;28.20
9118;DHT22;4594;50.994;7.126;2022-09-03T04:41:44;19.00;28.20
9118;DHT22;4594;50.994;7.126;2022-09-03T04:44:10;18.90;28.20
9118;DHT22;4594;50.994;7.126;2022-09-03T04:46:36;19.00;28.30
9118;DHT22;4594;50.994;7.126;2022-09-03T04:49:02;19.00;28.30
9118;DHT22;4594;50.994;7.126;2022-09-03T04:51:28;19.00;28.30
9118;DHT22;4594;50.994;7.126;2022-09-03T04:53:56;19.00;28.30
9118;DHT22;4594;50.994;7.126;2022-09-03T04:56:27;19.00;28.40
9118;DHT22;4594;50.994;7.126;2022-09-03T04:58:56;19.00;28.40
9118;DHT22;4594;50.994;7.126;2022-09-03T05:01:25;18.90;28.30
9118;DHT22;4594;50.994;7.126;2022-09-03T05:03:54;19.00;28.40
9118;DHT22;4594;50.994;7.126;2022-09-03T05:06:20;19.10;28.50
9118;DHT22;4594;50.994;7.126;2022-09-03T05:08:50;19.10;28.70
9118;DHT22;4594;50.994;7.126;2022-09-03T05:11:17;19.10;28.50
9118;DHT22;4594;50.994;7.126;2022-09-03T05:13:47;19.20;28.50
9118;DHT22;4594;50.994;7.126;2022-09-03T05:16:18;19.20;28.50
9118;DHT22;4594;50.994;7.126;2022-09-03T05:18:45;19.20;28.50
9118;DHT22;4594;50.994;7.126;2022-09-03T05:21:14;19.20;28.50
9118;DHT22;4594;50.994;7.126;2022-09-03T05:23:43;19.30;28.60
9118;DHT22;4594;50.994;7.126;2022-09-03T05:26:18;19.30;28.60
9118;DHT22;4594;50.994;7.126;2022-09-03T05:28:46;19.40;28.70
9118;DHT22;4594;50.994;7.126;2022-09-03T05:31:14;19.40;28.60
9118;DHT22;4594;50.994;7.126;2022-09-03T05:33:49;19.40;28.60
9118;DHT22;4594;50.994;7.126;2022-09-03T05:36:18;19.50;28.70
9118;DHT22;4594;50.994;7.126;2022-09-03T05:38:47;19.50;28.70
9118;DHT22;4594;50.994;7.126;2022-09-03T05:41:15;19.60;28.70
9118;DHT22;4594;50.994;7.126;2022-09-03T05:43:42;19.60;28.70
9118;DHT22;4594;50.994;7.126;2022-09-03T05:46:11;19.70;28.70
9118;DHT22;4594;50.994;7.126;2022-09-03T05:48:39;19.70;28.80
9118;DHT22;4594;50.994;7.126;2022-09-03T05:51:10;19.80;28.80
9118;DHT22;4594;50.994;7.126;2022-09-03T05:53:39;19.80;28.80
9118;DHT22;4594;50.994;7.126;2022-09-03T05:56:14;19.90;28.80
9118;DHT22;4594;50.994;7.126;2022-09-03T05:58:43;20.00;28.90
9118;DHT22;4594;50.994;7.126;2022-09-03T06:01:18;20.20;29.10
9118;DHT22;4594;50.994;7.126;2022-09-03T06:04:17;20.30;29.10
9118;DHT22;4594;50.994;7.126;2022-09-03T06:06:43;20.60;29.30
9118;DHT22;4594;50.994;7.126;2022-09-03T06:09:18;20.80;29.30
9118;DHT22;4594;50.994;7.126;2022-09-03T06:11:46;21.10;29.30
9118;DHT22;4594;50.994;7.126;2022-09-03T06:14:14;21.40;29.40
9118;DHT22;4594;50.994;7.126;2022-09-03T06:16:43;21.50;29.40
9118;DHT22;4594;50.994;7.126;2022-09-03T06:19:10;21.80;29.40
9118;DHT22;4594;50.994;7.126;2022-09-03T06:21:41;21.90;29.30
9118;DHT22;4594;50.994;7.126;2022-09-03T06:24:16;21.90;29.20
9118;DHT22;4594;50.994;7.126;2022-09-03T06:26:51;22.00;29.10
9118;DHT22;4594;50.994;7.126;2022-09-03T06:29:17;22.10;29.10
9118;DHT22;4594;50.994;7.126;2022-09-03T06:31:44;22.00;29.10
9118;DHT22;4594;50.994;7.126;2022-09-03T06:34:09;21.90;29.00
9118;DHT22;4594;50.994;7.126;2022-09-03T06:36:35;21.90;29.00
9118;DHT22;4594;50.994;7.126;2022-09-03T06:39:01;21.90;29.00
9118;DHT22;4594;50.994;7.126;2022-09-03T06:41:29;21.80;29.00
9118;DHT22;4594;50.994;7.126;2022-09-03T06:43:59;21.70;28.90
9118;DHT22;4594;50.994;7.126;2022-09-03T06:46:36;21.80;29.00
9118;DHT22;4594;50.994;7.126;2022-09-03T06:49:09;21.70;29.00
9118;DHT22;4594;50.994;7.126;2022-09-03T06:51:36;21.70;29.00
9118;DHT22;4594;50.994;7.126;2022-09-03T06:54:05;21.70;29.00
9118;DHT22;4594;50.994;7.126;2022-09-03T06:56:34;21.70;29.10
9118;DHT22;4594;50.994;7.126;2022-09-03T06:59:09;21.80;29.20
9118;DHT22;4594;50.994;7.126;2022-09-03T07:01:36;21.80;29.20
9118;DHT22;4594;50.994;7.126;2022-09-03T07:04:06;21.90;29.40
9118;DHT22;4594;50.994;7.126;2022-09-03T07:06:37;22.10;29.50
9118;DHT22;4594;50.994;7.126;2022-09-03T07:09:06;22.40;29.60
9118;DHT22;4594;50.994;7.126;2022-09-03T07:11:32;22.60;29.60
9118;DHT22;4594;50.994;7.126;2022-09-03T07:14:00;22.80;29.60
9118;DHT22;4594;50.994;7.126;2022-09-03T07:16:34;23.00;29.60
9118;DHT22;4594;50.994;7.126;2022-09-03T07:19:02;23.20;29.60
9118;DHT22;4594;50.994;7.126;2022-09-03T07:21:30;23.30;29.50
9118;DHT22;4594;50.994;7.126;2022-09-03T07:24:07;23.50;29.60
9118;DHT22;4594;50.994;7.126;2022-09-03T07:26:39;23.70;29.60
9118;DHT22;4594;50.994;7.126;2022-09-03T07:29:09;23.80;29.60
9118;DHT22;4594;50.994;7.126;2022-09-03T07:31:38;23.90;29.60
9118;DHT22;4594;50.994;7.126;2022-09-03T07:34:10;24.00;29.60
9118;DHT22;4594;50.994;7.126;2022-09-03T07:36:42;24.20;29.60
9118;DHT22;4594;50.994;7.126;2022-09-03T07:39:12;24.30;29.50
9118;DHT22;4594;50.994;7.126;2022-09-03T07:41:40;24.40;29.60
9118;DHT22;4594;50.994;7.126;2022-09-03T07:44:11;24.60;29.80
9118;DHT22;4594;50.994;7.126;2022-09-03T07:46:43;24.90;30.00
9118;DHT22;4594;50.994;7.126;2022-09-03T07:49:10;25.30;30.00
9118;DHT22;4594;50.994;7.126;2022-09-03T07:51:37;25.60;30.00
9118;DHT22;4594;50.994;7.126;2022-09-03T07:54:05;25.90;29.80
9118;DHT22;4594;50.994;7.126;2022-09-03T07:56:35;26.10;29.70
9118;DHT22;4594;50.994;7.126;2022-09-03T07:59:02;26.20;29.60
9118;DHT22;4594;50.994;7.126;2022-09-03T08:01:29;26.30;29.60
9118;DHT22;4594;50.994;7.126;2022-09-03T08:03:57;26.60;29.80
9118;DHT22;4594;50.994;7.126;2022-09-03T08:06:26;26.80;29.80
9118;DHT22;4594;50.994;7.126;2022-09-03T08:09:02;27.10;29.80
9118;DHT22;4594;50.994;7.126;2022-09-03T08:11:30;27.30;29.50
9118;DHT22;4594;50.994;7.126;2022-09-03T08:14:05;27.30;29.40
9118;DHT22;4594;50.994;7.126;2022-09-03T08:16:38;27.50;29.40
9118;DHT22;4594;50.994;7.126;2022-09-03T08:19:06;27.70;29.60
9118;DHT22;4594;50.994;7.126;2022-09-03T08:21:32;28.00;29.60
9118;DHT22;4594;50.994;7.126;2022-09-03T08:23:58;28.10;29.40
9118;DHT22;4594;50.994;7.126;2022-09-03T08:26:32;28.20;29.40
9118;DHT22;4594;50.994;7.126;2022-09-03T08:28:59;28.30;29.30
9118;DHT22;4594;50.994;7.126;2022-09-03T08:31:26;28.40;29.40
9118;DHT22;4594;50.994;7.126;2022-09-03T08:33:55;28.60;29.40
9118;DHT22;4594;50.994;7.126;2022-09-03T08:36:27;28.70;29.50
9118;DHT22;4594;50.994;7.126;2022-09-03T08:38:55;28.90;29.50
9118;DHT22;4594;50.994;7.126;2022-09-03T08:41:30;29.20;29.70
9118;DHT22;4594;50.994;7.126;2022-09-03T08:49:32;30.30;29.70
9118;DHT22;4594;50.994;7.126;2022-09-03T08:52:20;30.50;29.40
9118;DHT22;4594;50.994;7.126;2022-09-03T08:54:54;30.70;29.40
9118;DHT22;4594;50.994;7.126;2022-09-03T08:57:31;30.80;29.40
9118;DHT22;4594;50.994;7.126;2022-09-03T09:00:06;30.90;29.10
9118;DHT22;4594;50.994;7.126;2022-09-03T09:02:48;30.70;29.00
9118;DHT22;4594;50.994;7.126;2022-09-03T09:05:24;30.60;28.80
9118;DHT22;4594;50.994;7.126;2022-09-03T09:08:25;30.40;28.70
9118;DHT22;4594;50.994;7.126;2022-09-03T09:11:11;30.10;28.60
9118;DHT22;4594;50.994;7.126;2022-09-03T09:14:34;29.90;28.60
9118;DHT22;4594;50.994;7.126;2022-09-03T09:22:42;29.10;28.70
9118;DHT22;4594;50.994;7.126;2022-09-03T09:25:16;28.90;28.70
9118;DHT22;4594;50.994;7.126;2022-09-03T09:30:41;28.50;28.70
9118;DHT22;4594;50.994;7.126;2022-09-03T09:33:10;28.20;28.70
9118;DHT22;4594;50.994;7.126;2022-09-03T09:35:36;28.00;28.60
9118;DHT22;4594;50.994;7.126;2022-09-03T09:38:05;27.80;28.70
9118;DHT22;4594;50.994;7.126;2022-09-03T09:40:39;27.60;28.70
9118;DHT22;4594;50.994;7.126;2022-09-03T09:43:15;27.40;28.70
9118;DHT22;4594;50.994;7.126;2022-09-03T09:45:46;27.30;28.70
9118;DHT22;4594;50.994;7.126;2022-09-03T09:51:05;27.00;29.00
9118;DHT22;4594;50.994;7.126;2022-09-03T09:53:34;26.80;28.90
9118;DHT22;4594;50.994;7.126;2022-09-03T09:56:00;26.70;29.00
9118;DHT22;4594;50.994;7.126;2022-09-03T09:58:28;26.60;29.00
9118;DHT22;4594;50.994;7.126;2022-09-03T10:03:40;26.40;29.10
9118;DHT22;4594;50.994;7.126;2022-09-03T10:06:15;26.40;29.20
9118;DHT22;4594;50.994;7.126;2022-09-03T10:09:26;26.30;29.10
9118;DHT22;4594;50.994;7.126;2022-09-03T10:12:06;26.30;29.30
9118;DHT22;4594;50.994;7.126;2022-09-03T10:20:35;26.10;29.40
9118;DHT22;4594;50.994;7.126;2022-09-03T10:23:24;26.10;29.40
9118;DHT22;4594;50.994;7.126;2022-09-03T10:26:17;26.10;29.40
9118;DHT22;4594;50.994;7.126;2022-09-03T10:28:50;26.10;29.50
9118;DHT22;4594;50.994;7.126;2022-09-03T10:34:41;26.20;29.60
9118;DHT22;4594;50.994;7.126;2022-09-03T10:37:28;26.20;29.60
9118;DHT22;4594;50.994;7.126;2022-09-03T10:40:51;26.30;29.80
9118;DHT22;4594;50.994;7.126;2022-09-03T10:46:27;26.60;30.00
9118;DHT22;4594;50.994;7.126;2022-09-03T10:49:11;26.90;30.10
9118;DHT22;4594;50.994;7.126;2022-09-03T10:51:54;27.10;30.00
9118;DHT22;4594;50.994;7.126;2022-09-03T10:54:59;27.40;30.00
9118;DHT22;4594;50.994;7.126;2022-09-03T11:00:30;27.80;29.90
9118;DHT22;4594;50.994;7.126;2022-09-03T11:06:11;28.10;29.90
9118;DHT22;4594;50.994;7.126;2022-09-03T11:09:03;28.30;30.00
9118;DHT22;4594;50.994;7.126;2022-09-03T11:11:58;28.50;30.00
9118;DHT22;4594;50.994;7.126;2022-09-03T11:14:37;28.60;30.00
9118;DHT22;4594;50.994;7.126;2022-09-03T11:17:23;28.70;29.90
9118;DHT22;4594;50.994;7.126;2022-09-03T11:22:39;28.80;29.80
9118;DHT22;4594;50.994;7.126;2022-09-03T11:25:10;28.90;29.90
9118;DHT22;4594;50.994;7.126;2022-09-03T11:30:22;28.90;29.80
9118;DHT22;4594;50.994;7.126;2022-09-03T11:32:56;29.00;30.10
9118;DHT22;4594;50.994;7.126;2022-09-03T11:38:04;29.00;29.90
9118;DHT22;4594;50.994;7.126;2022-09-03T11:41:02;29.00;29.80
9118;DHT22;4594;50.994;7.126;2022-09-03T11:43:39;29.00;29.80
9118;DHT22;4594;50.994;7.126;2022-09-03T11:46:26;28.90;29.70
9118;DHT22;4594;50.994;7.126;2022-09-03T11:48:55;28.90;29.70
9118;DHT22;4594;50.994;7.126;2022-09-03T11:51:41;28.70;29.60
9118;DHT22;4594;50.994;7.126;2022-09-03T11:56:37;28.50;29.60
9118;DHT22;4594;50.994;7.126;2022-09-03T12:02:01;28.20;29.60
9118;DHT22;4594;50.994;7.126;2022-09-03T12:05:07;28.10;29.70
9118;DHT22;4594;50.994;7.126;2022-09-03T12:11:22;28.00;29.70
9118;DHT22;4594;50.994;7.126;2022-09-03T12:14:28;27.80;29.70
9118;DHT22;4594;50.994;7.126;2022-09-03T12:22:17;27.50;29.70
9118;DHT22;4594;50.994;7.126;2022-09-03T12:24:44;27.40;29.70
9118;DHT22;4594;50.994;7.126;2022-09-03T12:27:31;27.40;29.80
9118;DHT22;4594;50.994;7.126;2022-09-03T12:30:00;27.30;29.90
9118;DHT22;4594;50.994;7.126;2022-09-03T12:32:32;27.30;29.80
9118;DHT22;4594;50.994;7.126;2022-09-03T12:35:19;27.20;29.90
9118;DHT22;4594;50.994;7.126;2022-09-03T12:37:47;27.20;29.90
9118;DHT22;4594;50.994;7.126;2022-09-03T12:40:20;27.10;29.80
9118;DHT22;4594;50.994;7.126;2022-09-03T12:42:48;27.10;29.90
9118;DHT22;4594;50.994;7.126;2022-09-03T12:45:19;27.00;29.90
9118;DHT22;4594;50.994;7.126;2022-09-03T12:47:50;26.90;30.00
9118;DHT22;4594;50.994;7.126;2022-09-03T12:50:21;26.90;30.00
9118;DHT22;4594;50.994;7.126;2022-09-03T12:52:52;26.80;30.00
9118;DHT22;4594;50.994;7.126;2022-09-03T12:59:05;26.70;30.00
9118;DHT22;4594;50.994;7.126;2022-09-03T13:01:34;26.70;30.20
9118;DHT22;4594;50.994;7.126;2022-09-03T13:04:18;26.70;30.10
9118;DHT22;4594;50.994;7.126;2022-09-03T13:10:02;26.70;30.20
9118;DHT22;4594;50.994;7.126;2022-09-03T13:12:42;26.70;30.20
9118;DHT22;4594;50.994;7.126;2022-09-03T13:15:21;26.70;30.30
9118;DHT22;4594;50.994;7.126;2022-09-03T13:18:05;26.70;30.40
9118;DHT22;4594;50.994;7.126;2022-09-03T13:23:55;26.70;30.70
9118;DHT22;4594;50.994;7.126;2022-09-03T13:26:51;26.70;30.70
9118;DHT22;4594;50.994;7.126;2022-09-03T13:30:01;26.70;30.60
9118;DHT22;4594;50.994;7.126;2022-09-03T13:35:50;26.70;30.80
9118;DHT22;4594;50.994;7.126;2022-09-03T13:38:50;26.60;30.60
9118;DHT22;4594;50.994;7.126;2022-09-03T13:41:45;26.60;30.90
9118;DHT22;4594;50.994;7.126;2022-09-03T13:44:33;26.70;31.00
9118;DHT22;4594;50.994;7.126;2022-09-03T13:47:18;26.60;30.90
9118;DHT22;4594;50.994;7.126;2022-09-03T13:50:52;26.60;31.30
9118;DHT22;4594;50.994;7.126;2022-09-03T13:53:58;26.60;31.00
9118;DHT22;4594;50.994;7.126;2022-09-03T13:59:27;26.60;31.20
9118;DHT22;4594;50.994;7.126;2022-09-03T14:05:13;26.60;31.20
9118;DHT22;4594;50.994;7.126;2022-09-03T14:11:19;26.60;31.50
9118;DHT22;4594;50.994;7.126;2022-09-03T14:14:03;26.60;31.60
9118;DHT22;4594;50.994;7.126;2022-09-03T14:16:38;26.60;31.30
9118;DHT22;4594;50.994;7.126;2022-09-03T14:21:59;26.60;31.50
9118;DHT22;4594;50.994;7.126;2022-09-03T14:27:23;26.60;31.60
9118;DHT22;4594;50.994;7.126;2022-09-03T14:33:13;26.60;31.60
9118;DHT22;4594;50.994;7.126;2022-09-03T14:35:56;26.70;31.60
9118;DHT22;4594;50.994;7.126;2022-09-03T14:39:02;26.70;31.50
9118;DHT22;4594;50.994;7.126;2022-09-03T14:44:50;26.80;31.60
9118;DHT22;4594;50.994;7.126;2022-09-03T14:56:31;26.90;31.60
9118;DHT22;4594;50.994;7.126;2022-09-03T14:59:33;27.00;31.60
9118;DHT22;4594;50.994;7.126;2022-09-03T15:02:45;27.00;31.60
9118;DHT22;4594;50.994;7.126;2022-09-03T15:08:38;27.10;31.50
9118;DHT22;4594;50.994;7.126;2022-09-03T15:11:45;27.10;31.60
9118;DHT22;4594;50.994;7.126;2022-09-03T15:14:25;27.10;31.50
9118;DHT22;4594;50.994;7.126;2022-09-03T15:20:31;27.20;31.70
9118;DHT22;4594;50.994;7.126;2022-09-03T15:26:45;27.20;31.60
9118;DHT22;4594;50.994;7.126;2022-09-03T15:38:18;27.20;31.60
9118;DHT22;4594;50.994;7.126;2022-09-03T15:40:52;27.20;31.60
9118;DHT22;4594;50.994;7.126;2022-09-03T15:43:33;27.20;31.50
9118;DHT22;4594;50.994;7.126;2022-09-03T15:46:11;27.20;31.70
9118;DHT22;4594;50.994;7.126;2022-09-03T15:49:09;27.20;31.70
9118;DHT22;4594;50.994;7.126;2022-09-03T15:55:22;27.20;31.70
9118;DHT22;4594;50.994;7.126;2022-09-03T15:57:59;27.20;31.70
9118;DHT22;4594;50.994;7.126;2022-09-03T16:00:54;27.20;31.70
9118;DHT22;4594;50.994;7.126;2022-09-03T16:04:11;27.30;31.80
9118;DHT22;4594;50.994;7.126;2022-09-03T16:07:25;27.20;31.70
9118;DHT22;4594;50.994;7.126;2022-09-03T16:10:09;27.30;31.80
9118;DHT22;4594;50.994;7.126;2022-09-03T16:15:44;27.30;31.80
9118;DHT22;4594;50.994;7.126;2022-09-03T16:18:34;27.30;31.90
9118;DHT22;4594;50.994;7.126;2022-09-03T16:23:59;27.30;32.20
9118;DHT22;4594;50.994;7.126;2022-09-03T16:26:40;27.20;31.90
9118;DHT22;4594;50.994;7.126;2022-09-03T16:29:16;27.20;31.90
9118;DHT22;4594;50.994;7.126;2022-09-03T16:32:13;27.20;31.90
9118;DHT22;4594;50.994;7.126;2022-09-03T16:41:34;27.10;32.30
9118;DHT22;4594;50.994;7.126;2022-09-03T16:43:53;27.10;32.60
9118;DHT22;4594;50.994;7.126;2022-09-03T16:46:58;27.00;32.50
9118;DHT22;4594;50.994;7.126;2022-09-03T16:49:36;26.90;32.60
9118;DHT22;4594;50.994;7.126;2022-09-03T16:55:04;26.70;33.10
9118;DHT22;4594;50.994;7.126;2022-09-03T16:57:58;26.60;33.10
9118;DHT22;4594;50.994;7.126;2022-09-03T17:03:28;26.30;34.00
9118;DHT22;4594;50.994;7.126;2022-09-03T17:06:25;26.10;34.30
9118;DHT22;4594;50.994;7.126;2022-09-03T17:22:48;25.00;35.60
9118;DHT22;4594;50.994;7.126;2022-09-03T17:25:38;24.80;35.50
9118;DHT22;4594;50.994;7.126;2022-09-03T17:31:45;24.30;36.30
9118;DHT22;4594;50.994;7.126;2022-09-03T17:51:04;22.70;39.20
9118;DHT22;4594;50.994;7.126;2022-09-03T17:54:06;22.50;39.80
9118;DHT22;4594;50.994;7.126;2022-09-03T17:56:55;22.30;40.40
9118;DHT22;4594;50.994;7.126;2022-09-03T18:00:04;22.10;40.80
9118;DHT22;4594;50.994;7.126;2022-09-03T18:05:26;21.80;41.50
9118;DHT22;4594;50.994;7.126;2022-09-03T18:08:25;21.60;41.80
9118;DHT22;4594;50.994;7.126;2022-09-03T18:11:08;21.40;42.00
9118;DHT22;4594;50.994;7.126;2022-09-03T18:22:17;21.00;43.80
9118;DHT22;4594;50.994;7.126;2022-09-03T18:25:06;20.90;44.70
9118;DHT22;4594;50.994;7.126;2022-09-03T18:27:58;20.70;44.90
9118;DHT22;4594;50.994;7.126;2022-09-03T18:30:48;20.70;45.30
9118;DHT22;4594;50.994;7.126;2022-09-03T18:33:32;20.60;45.70
9118;DHT22;4594;50.994;7.126;2022-09-03T18:36:16;20.50;46.30
9118;DHT22;4594;50.994;7.126;2022-09-03T18:39:25;20.50;46.80
9118;DHT22;4594;50.994;7.126;2022-09-03T18:52:10;20.20;48.30
9118;DHT22;4594;50.994;7.126;2022-09-03T18:55:37;20.10;48.40
9118;DHT22;4594;50.994;7.126;2022-09-03T19:01:50;20.00;48.90
9118;DHT22;4594;50.994;7.126;2022-09-03T19:05:13;19.90;49.40
9118;DHT22;4594;50.994;7.126;2022-09-03T19:08:19;19.90;49.60
9118;DHT22;4594;50.994;7.126;2022-09-03T19:11:35;19.80;49.90
9118;DHT22;4594;50.994;7.126;2022-09-03T19:14:41;19.80;50.10
9118;DHT22;4594;50.994;7.126;2022-09-03T19:21:16;19.70;50.60
9118;DHT22;4594;50.994;7.126;2022-09-03T19:24:10;19.60;50.80
9118;DHT22;4594;50.994;7.126;2022-09-03T19:26:57;19.60;51.30
9118;DHT22;4594;50.994;7.126;2022-09-03T19:30:15;19.50;51.60
9118;DHT22;4594;50.994;7.126;2022-09-03T19:36:25;19.50;52.00
9118;DHT22;4594;50.994;7.126;2022-09-03T19:54:42;19.40;52.60
9118;DHT22;4594;50.994;7.126;2022-09-03T19:57:28;19.40;53.10
9118;DHT22;4594;50.994;7.126;2022-09-03T20:00:14;19.30;53.10
9118;DHT22;4594;50.994;7.126;2022-09-03T20:02:59;19.30;53.30
9118;DHT22;4594;50.994;7.126;2022-09-03T20:05:44;19.30;53.50
9118;DHT22;4594;50.994;7.126;2022-09-03T20:08:29;19.20;53.60
9118;DHT22;4594;50.994;7.126;2022-09-03T20:11:20;19.20;53.70
9118;DHT22;4594;50.994;7.126;2022-09-03T20:13:49;19.20;53.70
9118;DHT22;4594;50.994;7.126;2022-09-03T20:20:14;19.20;53.50
9118;DHT22;4594;50.994;7.126;2022-09-03T20:23:01;19.20;53.60
9118;DHT22;4594;50.994;7.126;2022-09-03T20:31:00;19.20;54.80
9118;DHT22;4594;50.994;7.126;2022-09-03T20:37:04;19.20;54.10
9118;DHT22;4594;50.994;7.126;2022-09-03T20:40:03;19.20;54.20
9118;DHT22;4594;50.994;7.126;2022-09-03T20:54:01;19.10;54.80
9118;DHT22;4594;50.994;7.126;2022-09-03T20:57:03;19.20;54.50
9118;DHT22;4594;50.994;7.126;2022-09-03T21:09:00;19.20;55.10
9118;DHT22;4594;50.994;7.126;2022-09-03T21:11:38;19.20;55.10
9118;DHT22;4594;50.994;7.126;2022-09-03T21:17:14;19.20;55.80
9118;DHT22;4594;50.994;7.126;2022-09-03T21:20:02;19.20;55.50
9118;DHT22;4594;50.994;7.126;2022-09-03T21:23:01;19.20;55.30
9118;DHT22;4594;50.994;7.126;2022-09-03T21:26:00;19.20;55.30
9118;DHT22;4594;50.994;7.126;2022-09-03T21:28:30;19.10;55.60
9118;DHT22;4594;50.994;7.126;2022-09-03T21:31:09;19.20;55.80
9118;DHT22;4594;50.994;7.126;2022-09-03T21:33:47;19.10;55.80
9118;DHT22;4594;50.994;7.126;2022-09-03T21:36:30;19.20;55.90
9118;DHT22;4594;50.994;7.126;2022-09-03T21:39:08;19.10;55.60
9118;DHT22;4594;50.994;7.126;2022-09-03T21:41:45;19.10;55.70
9118;DHT22;4594;50.994;7.126;2022-09-03T21:44:40;19.20;55.90
9118;DHT22;4594;50.994;7.126;2022-09-03T21:47:21;19.10;55.70
9118;DHT22;4594;50.994;7.126;2022-09-03T21:50:10;19.10;56.10
9118;DHT22;4594;50.994;7.126;2022-09-03T21:58:26;19.10;55.90
9118;DHT22;4594;50.994;7.126;2022-09-03T22:01:02;19.00;56.30
9118;DHT22;4594;50.994;7.126;2022-09-03T22:03:35;19.00;56.10
9118;DHT22;4594;50.994;7.126;2022-09-03T22:06:05;19.00;56.50
9118;DHT22;4594;50.994;7.126;2022-09-03T22:11:51;19.00;55.90
9118;DHT22;4594;50.994;7.126;2022-09-03T22:14:30;19.00;56.60
9118;DHT22;4594;50.994;7.126;2022-09-03T22:17:10;19.00;56.70
9118;DHT22;4594;50.994;7.126;2022-09-03T22:19:41;19.00;56.60